createdAt,value
2022-09-10T00:01:36.899Z,15.02
2022-09-10T00:04:11.804Z,14.48
2022-09-10T00:06:40.667Z,15.27
2022-09-10T00:09:09.132Z,13.35
2022-09-10T00:11:39.344Z,13.45
2022-09-10T00:14:10.698Z,12.02
2022-09-10T00:16:38.552Z,12.07
2022-09-10T00:19:07.100Z,13.13
2022-09-10T00:21:35.910Z,12.80
2022-09-10T00:24:05.509Z,13.15
2022-09-10T00:26:38.495Z,14.63
2022-09-10T00:29:09.873Z,13.80
2022-09-10T00:31:38.083Z,13.27
2022-09-10T00:34:06.630Z,13.15
2022-09-10T00:36:40.023Z,12.15
2022-09-10T00:39:11.669Z,13.73
2022-09-10T00:41:41.413Z,13.93
2022-09-10T00:44:41.037Z,13.83
2022-09-10T00:47:20.257Z,13.48
2022-09-10T00:49:52.943Z,11.90
2022-09-10T00:52:21.470Z,11.30
2022-09-10T00:54:49.678Z,11.40
2022-09-10T00:57:21.036Z,12.27
2022-09-10T01:00:05.997Z,13.07
2022-09-10T01:02:34.169Z,11.68
2022-09-10T01:05:04.292Z,11.75
2022-09-10T01:07:33.958Z,11.65
2022-09-10T01:10:07.139Z,12.27
2022-09-10T01:13:02.471Z,11.32
2022-09-10T01:15:56.843Z,11.75
2022-09-10T01:19:07.752Z,12.00
2022-09-10T01:22:14.791Z,11.82
2022-09-10T01:25:15.126Z,12.10
2022-09-10T01:27:53.475Z,11.95
2022-09-10T01:30:24.699Z,12.13
2022-09-10T01:33:15.754Z,13.13
2022-09-10T01:35:51.444Z,12.43
2022-09-10T01:38:32.023Z,13.50
2022-09-10T01:41:01.759Z,13.18
2022-09-10T01:43:35.271Z,12.60
2022-09-10T01:46:21.949Z,12.30
2022-09-10T01:49:24.406Z,12.05
2022-09-10T01:52:18.767Z,12.63
2022-09-10T01:55:10.771Z,11.70
2022-09-10T01:58:04.470Z,11.50
2022-09-10T02:00:46.134Z,12.10
2022-09-10T02:03:23.106Z,11.93
2022-09-10T02:05:55.253Z,11.23
2022-09-10T02:08:31.379Z,12.23
2022-09-10T02:11:06.616Z,13.13
2022-09-10T02:13:38.279Z,11.38
2022-09-10T02:16:31.612Z,11.27
2022-09-10T02:19:02.222Z,11.63
2022-09-10T02:21:32.478Z,11.63
2022-09-10T02:24:06.134Z,11.27
2022-09-10T02:26:40.028Z,11.07
2022-09-10T02:29:09.492Z,11.30
2022-09-10T02:31:40.175Z,11.40
2022-09-10T02:34:08.275Z,11.50
2022-09-10T02:36:36.215Z,11.45
2022-09-10T02:39:05.647Z,11.25
2022-09-10T02:41:37.938Z,10.85
2022-09-10T02:44:06.145Z,12.60
2022-09-10T02:46:34.000Z,12.55
2022-09-10T02:49:01.790Z,12.57
2022-09-10T02:51:32.150Z,12.18
2022-09-10T02:54:00.004Z,12.80
2022-09-10T02:56:27.599Z,12.80
2022-09-10T02:58:55.767Z,13.50
2022-09-10T03:01:25.653Z,12.13
2022-09-10T03:04:00.129Z,12.25
2022-09-10T03:06:28.052Z,12.88
2022-09-10T03:08:55.903Z,13.57
2022-09-10T03:11:25.654Z,13.90
2022-09-10T03:13:53.887Z,13.32
2022-09-10T03:16:21.749Z,13.07
2022-09-10T03:18:49.771Z,14.57
2022-09-10T03:21:20.483Z,13.03
2022-09-10T03:23:50.898Z,12.98
2022-09-10T03:26:26.150Z,12.35
2022-09-10T03:28:55.132Z,11.65
2022-09-10T03:31:27.552Z,13.45
2022-09-10T03:33:55.931Z,13.07
2022-09-10T03:36:23.992Z,13.20
2022-09-10T03:38:51.775Z,12.68
2022-09-10T03:41:19.760Z,12.88
2022-09-10T03:43:49.802Z,12.75
2022-09-10T03:46:17.604Z,12.43
2022-09-10T03:48:50.086Z,13.63
2022-09-10T03:51:24.035Z,12.82
2022-09-10T03:53:52.296Z,13.18
2022-09-10T03:56:21.734Z,12.40
2022-09-10T03:58:52.575Z,12.27
2022-09-10T04:01:20.737Z,12.68
2022-09-10T04:03:49.611Z,12.80
2022-09-10T04:06:18.188Z,13.40
2022-09-10T04:08:49.969Z,12.85
2022-09-10T04:11:18.028Z,13.73
2022-09-10T04:13:49.368Z,14.02
2022-09-10T04:16:22.624Z,13.85
2022-09-10T04:18:51.414Z,14.02
2022-09-10T04:21:20.542Z,13.80
2022-09-10T04:23:54.840Z,13.37
2022-09-10T04:26:23.567Z,13.95
2022-09-10T04:28:51.342Z,12.75
2022-09-10T04:31:20.048Z,13.25
2022-09-10T04:33:48.730Z,12.05
2022-09-10T04:36:20.956Z,10.43
2022-09-10T04:38:49.537Z,11.35
2022-09-10T04:41:19.790Z,11.00
2022-09-10T04:43:49.454Z,11.32
2022-09-10T04:46:18.001Z,11.02
2022-09-10T04:48:47.366Z,10.77
2022-09-10T04:51:19.144Z,11.23
2022-09-10T04:53:49.126Z,11.00
2022-09-10T04:56:17.513Z,10.65
2022-09-10T04:58:45.799Z,11.68
2022-09-10T05:01:14.126Z,11.03
2022-09-10T05:03:44.453Z,10.85
2022-09-10T05:06:16.264Z,11.32
2022-09-10T05:08:47.484Z,11.40
2022-09-10T05:11:16.447Z,11.55
2022-09-10T05:14:28.248Z,11.20
2022-09-10T05:17:05.092Z,10.82
2022-09-10T05:19:34.636Z,11.57
2022-09-10T05:22:07.308Z,10.90
2022-09-10T05:24:36.533Z,11.05
2022-09-10T05:27:07.766Z,10.30
2022-09-10T05:29:38.915Z,11.07
2022-09-10T05:32:09.782Z,10.65
2022-09-10T05:34:40.214Z,10.40
2022-09-10T05:37:17.267Z,10.45
2022-09-10T05:39:58.428Z,9.77
2022-09-10T05:42:31.484Z,11.55
2022-09-10T05:44:59.686Z,12.00
2022-09-10T05:47:28.556Z,11.52
2022-09-10T05:49:56.898Z,12.20
2022-09-10T05:52:24.989Z,12.40
2022-09-10T05:54:56.698Z,11.77
2022-09-10T05:57:24.756Z,12.25
2022-09-10T05:59:52.648Z,11.82
2022-09-10T06:02:24.112Z,12.40
2022-09-10T06:04:54.785Z,12.00
2022-09-10T06:07:23.617Z,12.85
2022-09-10T06:09:52.004Z,12.85
2022-09-10T06:12:27.614Z,12.88
2022-09-10T06:14:55.430Z,13.63
2022-09-10T06:17:23.807Z,14.10
2022-09-10T06:19:53.101Z,13.73
2022-09-10T06:22:20.794Z,12.65
2022-09-10T06:24:52.067Z,13.55
2022-09-10T06:27:20.250Z,13.02
2022-09-10T06:29:49.251Z,12.50
2022-09-10T06:32:17.615Z,12.70
2022-09-10T06:34:47.182Z,13.10
2022-09-10T06:37:15.636Z,13.00
2022-09-10T06:39:43.343Z,12.93
2022-09-10T06:42:11.995Z,12.97
2022-09-10T06:45:02.283Z,12.95
2022-09-10T06:50:59.585Z,12.02
2022-09-10T06:53:34.018Z,11.60
2022-09-10T06:56:06.159Z,11.93
2022-09-10T06:58:35.688Z,11.88
2022-09-10T07:01:12.279Z,11.30
2022-09-10T07:03:46.049Z,11.65
2022-09-10T07:06:19.882Z,10.48
2022-09-10T07:08:56.025Z,11.00
2022-09-10T07:11:25.686Z,10.75
2022-09-10T07:13:56.704Z,11.63
2022-09-10T07:16:29.955Z,11.45
2022-09-10T07:18:59.699Z,11.30
2022-09-10T07:21:38.827Z,11.67
2022-09-10T07:24:12.518Z,11.05
2022-09-10T07:26:43.136Z,11.18
2022-09-10T07:29:11.658Z,11.00
2022-09-10T07:31:41.894Z,10.35
2022-09-10T07:34:16.886Z,11.27
2022-09-10T07:36:44.976Z,9.40
2022-09-10T07:39:13.666Z,8.65
2022-09-10T07:41:43.244Z,7.53
2022-09-10T07:44:13.918Z,8.27
2022-09-10T07:46:44.365Z,7.50
2022-09-10T07:49:14.202Z,8.32
2022-09-10T07:51:45.974Z,7.88
2022-09-10T07:54:17.577Z,7.15
2022-09-10T07:56:51.567Z,10.27
2022-09-10T07:59:20.080Z,10.80
2022-09-10T08:01:51.621Z,8.82
2022-09-10T08:04:21.065Z,7.53
2022-09-10T08:06:48.695Z,6.95
2022-09-10T08:09:18.130Z,7.25
2022-09-10T08:11:52.186Z,8.03
2022-09-10T08:14:23.010Z,6.55
2022-09-10T08:16:53.946Z,7.22
2022-09-10T08:19:22.407Z,7.25
2022-09-10T08:21:52.346Z,7.47
2022-09-10T08:24:28.560Z,6.87
2022-09-10T08:26:56.786Z,6.85
2022-09-10T08:29:24.388Z,7.60
2022-09-10T08:31:52.374Z,7.05
2022-09-10T08:34:26.589Z,7.10
2022-09-10T08:37:03.788Z,7.63
2022-09-10T08:39:34.661Z,7.80
2022-09-10T08:42:24.972Z,7.13
2022-09-10T08:45:15.074Z,6.32
2022-09-10T08:47:59.302Z,7.55
2022-09-10T08:50:34.456Z,6.93
2022-09-10T08:53:05.330Z,6.60
2022-09-10T08:55:35.964Z,6.25
2022-09-10T08:58:42.811Z,6.40
2022-09-10T09:01:24.246Z,6.13
2022-09-10T09:03:55.214Z,6.07
2022-09-10T09:06:45.427Z,6.68
2022-09-10T09:09:15.789Z,6.97
2022-09-10T09:12:03.273Z,6.28
2022-09-10T09:14:50.869Z,5.85
2022-09-10T09:17:57.705Z,6.20
2022-09-10T09:20:45.157Z,5.45
2022-09-10T09:23:33.198Z,6.05
2022-09-10T09:26:11.759Z,6.20
2022-09-10T09:29:00.858Z,6.22
2022-09-10T09:31:34.058Z,6.27
2022-09-10T09:34:23.488Z,7.07
2022-09-10T09:36:54.250Z,6.55
2022-09-10T09:39:41.231Z,7.53
2022-09-10T09:42:19.919Z,6.07
2022-09-10T09:45:08.601Z,6.90
2022-09-10T09:47:36.541Z,6.40
2022-09-10T09:50:04.957Z,6.25
2022-09-10T09:52:33.348Z,6.68
2022-09-10T09:55:14.735Z,7.05
2022-09-10T09:57:44.006Z,7.13
2022-09-10T10:00:36.509Z,6.88
2022-09-10T10:03:25.187Z,6.40
2022-09-10T10:06:10.642Z,6.00
2022-09-10T10:08:43.125Z,6.63
2022-09-10T10:11:15.846Z,6.60
2022-09-10T10:13:46.322Z,6.45
2022-09-10T10:16:22.579Z,5.97
2022-09-10T10:18:51.345Z,6.50
2022-09-10T10:21:37.212Z,7.05
2022-09-10T10:24:06.229Z,6.83
2022-09-10T10:26:35.576Z,6.80
2022-09-10T10:29:20.047Z,6.80
2022-09-10T10:31:50.611Z,5.70
2022-09-10T10:34:40.520Z,7.07
2022-09-10T10:37:14.262Z,6.63
2022-09-10T10:39:57.324Z,6.85
2022-09-10T10:42:35.609Z,6.20
2022-09-10T10:45:56.583Z,6.50
2022-09-10T10:48:39.526Z,6.15
2022-09-10T10:51:15.219Z,5.80
2022-09-10T10:54:28.757Z,6.43
2022-09-10T10:57:20.450Z,6.32
2022-09-10T11:00:01.566Z,6.63
2022-09-10T11:02:52.205Z,8.00
2022-09-10T11:05:48.926Z,7.80
2022-09-10T11:08:22.034Z,8.68
2022-09-10T11:10:56.506Z,9.10
2022-09-10T11:13:32.255Z,8.57
2022-09-10T11:16:07.126Z,7.80
2022-09-10T11:18:39.662Z,7.80
2022-09-10T11:21:45.586Z,6.80
2022-09-10T11:24:28.469Z,7.70
2022-09-10T11:27:24.605Z,7.75
2022-09-10T11:30:12.245Z,5.28
2022-09-10T11:33:06.195Z,6.63
2022-09-10T11:35:43.594Z,5.63
2022-09-10T11:38:20.990Z,6.13
2022-09-10T11:41:17.637Z,6.82
2022-09-10T11:44:14.771Z,6.03
2022-09-10T11:47:11.765Z,8.07
2022-09-10T11:49:51.677Z,5.68
2022-09-10T11:52:21.535Z,5.05
2022-09-10T11:54:49.795Z,7.50
2022-09-10T11:57:23.258Z,6.60
2022-09-10T12:00:12.455Z,6.10
2022-09-10T12:02:43.081Z,6.55
2022-09-10T12:05:35.836Z,6.00
2022-09-10T12:08:33.080Z,5.10
2022-09-10T12:11:28.090Z,5.05
2022-09-10T12:13:57.748Z,4.40
2022-09-10T12:16:41.461Z,4.07
2022-09-10T12:19:29.725Z,4.50
2022-09-10T12:22:06.823Z,4.60
2022-09-10T12:24:39.833Z,5.32
2022-09-10T12:27:58.734Z,5.10
2022-09-10T12:30:28.724Z,5.07
2022-09-10T12:33:19.954Z,5.00
2022-09-10T12:35:51.562Z,4.20
2022-09-10T12:38:48.921Z,5.15
2022-09-10T12:41:25.974Z,4.33
2022-09-10T12:44:01.553Z,4.30
2022-09-10T12:46:31.407Z,4.53
2022-09-10T12:49:00.711Z,4.72
2022-09-10T12:51:52.004Z,4.45
2022-09-10T12:54:37.922Z,3.93
2022-09-10T12:57:29.262Z,4.57
2022-09-10T13:00:20.371Z,4.65
2022-09-10T13:03:09.924Z,4.65
2022-09-10T13:05:47.786Z,4.95
2022-09-10T13:08:42.310Z,5.80
2022-09-10T13:11:19.065Z,5.85
2022-09-10T13:13:50.191Z,5.90
2022-09-10T13:16:27.476Z,5.18
2022-09-10T13:19:15.591Z,5.32
2022-09-10T13:21:43.541Z,5.27
2022-09-10T13:24:38.946Z,4.82
2022-09-10T13:27:13.193Z,4.43
2022-09-10T13:29:49.470Z,4.00
2022-09-10T13:32:32.252Z,4.30
2022-09-10T13:35:19.981Z,4.93
2022-09-10T13:38:30.152Z,5.95
2022-09-10T13:41:10.687Z,5.80
2022-09-10T13:44:00.588Z,5.90
2022-09-10T13:46:36.128Z,5.13
2022-09-10T13:49:41.456Z,5.10
2022-09-10T13:52:15.600Z,4.05
2022-09-10T13:54:51.668Z,3.40
2022-09-10T13:57:33.620Z,3.13
2022-09-10T14:00:24.767Z,3.13
2022-09-10T14:03:00.471Z,2.93
2022-09-10T14:05:42.056Z,3.20
2022-09-10T14:08:27.036Z,3.70
2022-09-10T14:11:01.134Z,3.55
2022-09-10T14:13:46.438Z,3.35
2022-09-10T14:16:20.460Z,3.90
2022-09-10T14:18:55.774Z,3.30
2022-09-10T14:21:27.366Z,3.53
2022-09-10T14:23:58.494Z,3.47
2022-09-10T14:26:29.281Z,3.95
2022-09-10T14:29:02.022Z,4.27
2022-09-10T14:31:34.856Z,6.32
2022-09-10T14:34:32.467Z,5.95
2022-09-10T14:37:32.516Z,5.18
2022-09-10T14:40:18.367Z,4.88
2022-09-10T14:42:48.334Z,5.20
2022-09-10T14:45:48.171Z,4.90
2022-09-10T14:48:29.790Z,4.75
2022-09-10T14:51:16.242Z,4.60
2022-09-10T14:53:46.652Z,4.20
2022-09-10T14:56:41.136Z,3.80
2022-09-10T14:59:42.812Z,3.28
2022-09-10T15:02:24.857Z,3.15
2022-09-10T15:04:53.380Z,2.92
2022-09-10T15:07:23.847Z,3.67
2022-09-10T15:09:53.772Z,3.73
2022-09-10T15:12:32.374Z,4.35
2022-09-10T15:15:00.329Z,4.00
2022-09-10T15:17:28.578Z,3.80
2022-09-10T15:19:56.447Z,4.53
2022-09-10T15:22:29.913Z,3.50
2022-09-10T15:25:10.533Z,4.05
2022-09-10T15:27:39.074Z,4.13
2022-09-10T15:30:07.557Z,4.05
2022-09-10T15:32:35.939Z,4.63
2022-09-10T15:35:04.821Z,4.03
2022-09-10T15:37:33.197Z,3.20
2022-09-10T15:40:00.864Z,3.40
2022-09-10T15:42:28.704Z,3.45
2022-09-10T15:44:56.587Z,3.47
2022-09-10T15:47:24.442Z,2.63
2022-09-10T15:49:53.134Z,3.45
2022-09-10T15:52:21.404Z,3.60
2022-09-10T15:54:48.985Z,3.33
2022-09-10T15:57:17.033Z,3.40
2022-09-10T15:59:44.898Z,2.90
2022-09-10T16:02:16.113Z,2.97
2022-09-10T16:04:44.029Z,3.53
2022-09-10T16:07:11.968Z,3.30
2022-09-10T16:09:39.739Z,3.70
2022-09-10T16:12:08.298Z,3.60
2022-09-10T16:14:36.336Z,3.08
2022-09-10T16:17:10.713Z,3.42
2022-09-10T16:19:38.789Z,3.22
2022-09-10T16:22:06.645Z,3.22
2022-09-10T16:24:34.669Z,3.70
2022-09-10T16:27:02.676Z,6.43
2022-09-10T16:29:30.512Z,6.35
2022-09-10T16:31:58.538Z,4.18
2022-09-10T16:34:26.805Z,3.67
2022-09-10T16:36:54.546Z,3.80
2022-09-10T16:39:22.524Z,4.35
2022-09-10T16:41:51.317Z,4.20
2022-09-10T16:44:19.730Z,4.22
2022-09-10T16:46:48.418Z,4.28
2022-09-10T16:49:18.957Z,4.70
2022-09-10T16:51:49.367Z,3.95
2022-09-10T16:54:21.592Z,4.70
2022-09-10T16:56:50.644Z,4.20
2022-09-10T16:59:23.799Z,4.13
2022-09-10T17:01:52.279Z,4.23
2022-09-10T17:04:28.148Z,4.30
2022-09-10T17:06:57.814Z,4.05
2022-09-10T17:09:26.196Z,3.88
2022-09-10T17:11:54.486Z,3.80
2022-09-10T17:14:23.227Z,3.93
2022-09-10T17:16:51.114Z,4.80
2022-09-10T17:19:23.994Z,3.90
2022-09-10T17:21:55.888Z,3.90
2022-09-10T17:24:25.634Z,3.60
2022-09-10T17:26:55.441Z,3.60
2022-09-10T17:29:25.363Z,3.20
2022-09-10T17:31:55.563Z,3.63
2022-09-10T17:34:24.876Z,3.80
2022-09-10T17:36:52.684Z,4.10
2022-09-10T17:39:20.943Z,3.60
2022-09-10T17:41:48.941Z,4.70
2022-09-10T17:44:17.070Z,4.10
2022-09-10T17:46:45.335Z,3.95
2022-09-10T17:49:14.839Z,3.45
2022-09-10T17:51:43.140Z,3.27
2022-09-10T17:54:11.361Z,3.50
2022-09-10T17:56:39.486Z,3.20
2022-09-10T17:59:07.225Z,3.35
2022-09-10T18:01:39.199Z,3.78
2022-09-10T18:04:09.197Z,3.00
2022-09-10T18:06:37.304Z,3.85
2022-09-10T18:09:06.001Z,3.35
2022-09-10T18:11:36.976Z,3.42
2022-09-10T18:14:05.583Z,4.07
2022-09-10T18:16:36.259Z,3.37
2022-09-10T18:19:12.962Z,4.10
2022-09-10T18:21:42.509Z,3.40
2022-09-10T18:24:12.962Z,3.53
2022-09-10T18:26:43.668Z,3.55
2022-09-10T18:29:14.929Z,3.13
2022-09-10T18:31:45.141Z,3.60
2022-09-10T18:34:19.498Z,3.50
2022-09-10T18:36:53.718Z,3.67
2022-09-10T18:39:22.660Z,3.33
2022-09-10T18:41:50.594Z,3.60
2022-09-10T18:44:27.832Z,3.67
2022-09-10T18:46:56.322Z,3.40
2022-09-10T18:49:25.393Z,3.85
2022-09-10T18:51:55.552Z,3.70
2022-09-10T18:54:25.257Z,3.17
2022-09-10T18:56:53.670Z,3.80
2022-09-10T18:59:23.817Z,4.20
2022-09-10T19:01:54.468Z,3.80
2022-09-10T19:04:27.557Z,3.58
2022-09-10T19:06:57.434Z,3.63
2022-09-10T19:09:30.364Z,3.90
2022-09-10T19:12:00.229Z,4.10
2022-09-10T19:14:30.791Z,4.03
2022-09-10T19:17:00.638Z,4.30
2022-09-10T19:19:32.062Z,4.20
2022-09-10T19:22:06.429Z,3.90
2022-09-10T19:24:54.108Z,3.70
2022-09-10T19:27:24.482Z,3.78
2022-09-10T19:29:52.196Z,3.95
2022-09-10T19:32:20.311Z,4.70
2022-09-10T19:34:52.497Z,4.10
2022-09-10T19:37:21.142Z,3.80
2022-09-10T19:39:49.538Z,4.00
2022-09-10T19:42:17.692Z,4.38
2022-09-10T19:44:45.393Z,3.77
2022-09-10T19:47:13.398Z,4.00
2022-09-10T19:49:41.061Z,4.20
2022-09-10T19:52:08.800Z,4.28
2022-09-10T19:54:37.021Z,4.20
2022-09-10T19:57:04.944Z,4.13
2022-09-10T19:59:32.577Z,4.18
2022-09-10T20:02:00.938Z,4.28
2022-09-10T20:04:29.158Z,4.57
2022-09-10T20:06:57.014Z,3.90
2022-09-10T20:09:25.150Z,3.90
2022-09-10T20:11:53.060Z,3.90
2022-09-10T20:14:21.349Z,4.03
2022-09-10T20:16:49.368Z,3.70
2022-09-10T20:19:18.846Z,3.70
2022-09-10T20:21:47.933Z,4.57
2022-09-10T20:24:16.950Z,4.00
2022-09-10T20:26:46.844Z,4.20
2022-09-10T20:29:18.201Z,3.78
2022-09-10T20:31:47.361Z,4.25
2022-09-10T20:34:18.174Z,4.33
2022-09-10T20:36:46.372Z,4.10
2022-09-10T20:39:16.561Z,4.18
2022-09-10T20:41:45.336Z,4.13
2022-09-10T20:44:16.009Z,4.00
2022-09-10T20:46:44.593Z,5.00
2022-09-10T20:49:13.938Z,4.22
2022-09-10T20:51:44.194Z,4.70
2022-09-10T20:54:17.964Z,4.70
2022-09-10T20:56:46.393Z,4.50
2022-09-10T20:59:16.731Z,5.00
2022-09-10T21:01:46.460Z,4.68
2022-09-10T21:04:15.416Z,4.47
2022-09-10T21:06:43.653Z,4.15
2022-09-10T21:09:12.369Z,4.82
2022-09-10T21:11:40.470Z,5.03
2022-09-10T21:14:09.211Z,4.47
2022-09-10T21:16:40.310Z,4.25
2022-09-10T21:19:13.838Z,5.03
2022-09-10T21:21:43.083Z,4.45
2022-09-10T21:24:13.650Z,4.50
2022-09-10T21:26:43.671Z,4.50
2022-09-10T21:29:14.661Z,4.72
2022-09-10T21:31:43.002Z,4.80
2022-09-10T21:34:11.388Z,4.57
2022-09-10T21:36:41.355Z,4.93
2022-09-10T21:39:16.666Z,4.88
2022-09-10T21:41:47.488Z,4.72
2022-09-10T21:44:18.190Z,4.03
2022-09-10T21:46:47.209Z,4.60
2022-09-10T21:49:15.817Z,4.00
2022-09-10T21:51:44.169Z,4.25
2022-09-10T21:54:15.654Z,4.57
2022-09-10T21:56:43.337Z,4.50
2022-09-10T21:59:12.693Z,4.00
2022-09-10T22:01:46.057Z,4.70
2022-09-10T22:04:19.956Z,4.50
2022-09-10T22:06:49.813Z,4.03
2022-09-10T22:09:18.060Z,3.85
2022-09-10T22:11:50.400Z,4.35
2022-09-10T22:14:21.722Z,4.27
2022-09-10T22:16:50.116Z,4.70
2022-09-10T22:19:20.806Z,4.40
2022-09-10T22:21:49.117Z,4.38
2022-09-10T22:24:19.843Z,3.88
2022-09-10T22:26:48.342Z,4.20
2022-09-10T22:29:18.815Z,3.88
2022-09-10T22:31:47.384Z,3.90
2022-09-10T22:34:16.670Z,3.80
2022-09-10T22:36:46.218Z,4.35
2022-09-10T22:39:19.785Z,4.30
2022-09-10T22:41:49.214Z,4.43
2022-09-10T22:44:20.432Z,4.03
2022-09-10T22:46:48.506Z,4.20
2022-09-10T22:49:17.296Z,4.22
2022-09-10T22:51:45.256Z,3.23
2022-09-10T22:54:12.922Z,4.07
2022-09-10T22:56:42.248Z,3.95
2022-09-10T22:59:14.079Z,4.22
2022-09-10T23:01:47.707Z,4.00
2022-09-10T23:04:16.374Z,4.00
2022-09-10T23:06:44.452Z,3.72
2022-09-10T23:09:15.347Z,3.75
2022-09-10T23:11:44.974Z,3.85
2022-09-10T23:14:15.934Z,3.75
2022-09-10T23:16:48.710Z,3.70
2022-09-10T23:19:20.389Z,3.97
2022-09-10T23:21:51.432Z,4.07
2022-09-10T23:24:22.373Z,3.80
2022-09-10T23:26:51.045Z,4.22
2022-09-10T23:29:18.851Z,3.73
2022-09-10T23:31:47.991Z,3.92
2022-09-10T23:34:18.819Z,3.83
2022-09-10T23:36:48.385Z,4.10
2022-09-10T23:39:20.134Z,3.97
2022-09-10T23:41:51.629Z,4.00
2022-09-10T23:44:20.674Z,4.60
2022-09-10T23:46:48.511Z,3.38
2022-09-10T23:49:16.978Z,3.85
2022-09-10T23:51:45.776Z,3.78
2022-09-10T23:54:13.800Z,3.57
2022-09-10T23:56:42.018Z,3.53
2022-09-10T23:59:11.797Z,3.30
